Time;durP1;ratioP1;P1;durP2;ratioP2;P2;SDS_P1;SDS_P2;PMS_P1;PMS_P2;Temp;Humidity;BMP_temperature;BMP_pressure;BME280_temperature;BME280_humidity;BME280_pressure;Samples;Min_cycle;Max_cycle;Signal;HPM_P1;HPM_P2
2021/03/01 00:00:26;;;;;;;10.80;8.35;;;;;;;2.17;78.18;97307.66;1304877;22;20028;-77
2021/03/01 00:00:56;;;;;;;10.82;8.40;;;;;;;2.19;77.96;97313.53;1303644;22;20035;-77
2021/03/01 00:01:26;;;;;;;12.57;8.48;;;;;;;2.21;77.04;97306.31;1291107;22;20457;-77
2021/03/01 00:01:57;;;;;;;12.52;8.80;;;;;;;2.20;77.79;97309.94;1297331;22;20000;-78
2021/03/01 00:02:27;;;;;;;12.27;8.15;;;;;;;2.18;77.73;97309.28;1297135;22;19996;-76
2021/03/01 00:02:58;;;;;;;12.95;8.75;;;;;;;2.10;77.25;97306.66;1299155;22;19995;-75
2021/03/01 00:03:28;;;;;;;12.02;9.25;;;;;;;2.10;77.67;97309.28;1307937;22;19995;-76
2021/03/01 00:03:59;;;;;;;10.63;8.23;;;;;;;2.14;79.23;97307.19;1307818;22;20011;-76
2021/03/01 00:04:29;;;;;;;11.40;8.38;;;;;;;2.16;78.49;97311.25;1307590;22;20003;-76
2021/03/01 00:04:59;;;;;;;12.25;8.52;;;;;;;2.17;78.66;97310.28;1307637;22;20002;-76
2021/03/01 00:05:30;;;;;;;13.35;8.73;;;;;;;2.17;77.68;97302.41;1307294;22;20045;-76
2021/03/01 00:06:01;;;;;;;11.48;8.77;;;;;;;2.15;77.14;97307.00;1307324;22;20283;-76
2021/03/01 00:06:31;;;;;;;10.93;8.18;;;;;;;2.16;78.06;97306.03;1307420;22;19995;-76
2021/03/01 00:07:02;;;;;;;11.20;8.65;;;;;;;2.14;78.03;97301.94;1307732;22;20283;-75
2021/03/01 00:07:32;;;;;;;14.18;9.15;;;;;;;2.18;78.41;97300.63;1307418;22;20006;-76
2021/03/01 00:08:03;;;;;;;13.27;8.77;;;;;;;2.20;77.85;97312.53;1307953;22;19991;-76
2021/03/01 00:08:33;;;;;;;11.27;9.00;;;;;;;2.16;77.48;97305.22;1307251;22;20030;-75
2021/03/01 00:09:04;;;;;;;13.60;9.48;;;;;;;2.13;77.72;97302.91;1298334;22;20000;-76
2021/03/01 00:09:35;;;;;;;11.07;8.60;;;;;;;2.13;77.30;97308.97;1298737;22;20087;-77
2021/03/01 00:10:06;;;;;;;11.82;9.02;;;;;;;2.13;78.55;97308.13;1291140;23;19999;-77
2021/03/01 00:10:37;;;;;;;12.00;8.85;;;;;;;2.15;78.25;97304.38;1285459;22;20020;-78
2021/03/01 00:11:07;;;;;;;11.55;8.55;;;;;;;2.15;78.78;97303.56;1290661;23;20004;-77
2021/03/01 00:11:37;;;;;;;11.68;8.80;;;;;;;2.14;78.07;97304.56;1290888;22;20026;-77
2021/03/01 00:12:08;;;;;;;13.60;8.77;;;;;;;2.09;77.50;97307.66;1297096;22;20003;-78
2021/03/01 00:12:38;;;;;;;11.88;8.43;;;;;;;2.11;77.09;97310.91;1303455;22;20078;-78
2021/03/01 00:13:09;;;;;;;12.15;8.65;;;;;;;2.08;78.38;97311.25;1303533;22;20022;-77
2021/03/01 00:13:39;;;;;;;11.75;8.57;;;;;;;2.05;77.69;97306.38;1303321;22;20010;-77
2021/03/01 00:14:10;;;;;;;12.30;9.40;;;;;;;2.09;77.79;97302.44;1303947;22;20006;-78
2021/03/01 00:14:40;;;;;;;11.63;8.90;;;;;;;2.09;78.04;97299.81;1303787;22;20010;-79
2021/03/01 00:15:13;;;;;;;11.18;8.77;;;;;;;2.12;77.92;97307.31;1303864;22;20415;-78
2021/03/01 00:15:43;;;;;;;10.90;7.43;;;;;;;2.16;77.12;97307.81;1303742;22;20003;-78
2021/03/01 00:16:13;;;;;;;12.35;8.77;;;;;;;2.17;77.06;97310.28;1303244;22;19987;-79
2021/03/01 00:16:44;;;;;;;13.50;8.75;;;;;;;2.07;77.05;97304.41;1296895;22;19996;-78
2021/03/01 00:17:14;;;;;;;14.48;8.63;;;;;;;2.09;78.79;97305.03;1290728;23;20325;-78
2021/03/01 00:17:45;;;;;;;12.25;9.15;;;;;;;2.10;77.98;97308.47;1290794;23;19996;-78
2021/03/01 00:18:15;;;;;;;11.88;8.77;;;;;;;2.08;78.35;97302.59;1290884;22;19996;-79
2021/03/01 00:18:46;;;;;;;12.45;8.57;;;;;;;2.08;78.08;97305.22;1303514;22;19999;-79
2021/03/01 00:19:16;;;;;;;11.10;8.63;;;;;;;2.08;77.68;97306.03;1303937;22;20003;-82
2021/03/01 00:19:46;;;;;;;11.55;8.20;;;;;;;2.09;78.63;97304.22;1303845;22;20022;-79
2021/03/01 00:20:17;;;;;;;12.45;8.95;;;;;;;2.07;78.09;97301.78;1303753;22;19983;-81
2021/03/01 00:20:47;;;;;;;13.13;9.35;;;;;;;2.05;78.88;97303.75;1303883;22;19991;-82
2021/03/01 00:21:18;;;;;;;11.30;8.77;;;;;;;2.03;78.45;97297.88;1303843;22;19991;-82
2021/03/01 00:21:49;;;;;;;13.27;9.70;;;;;;;2.06;77.37;97297.53;1304173;22;19996;-82
2021/03/01 00:22:19;;;;;;;11.13;8.98;;;;;;;2.08;78.42;97295.56;1304257;22;19995;-82
2021/03/01 00:22:50;;;;;;;12.57;8.60;;;;;;;2.04;78.55;97297.72;1304320;22;20002;-82
2021/03/01 00:23:20;;;;;;;11.60;8.60;;;;;;;2.08;78.07;97294.75;1304419;22;19999;-82
2021/03/01 00:23:51;;;;;;;15.88;9.55;;;;;;;2.02;77.68;97297.06;1304231;22;20416;-81
2021/03/01 00:24:21;;;;;;;13.38;8.77;;;;;;;2.05;77.75;97298.53;1304260;22;20006;-79
2021/03/01 00:24:51;;;;;;;11.05;8.70;;;;;;;2.03;79.17;97301.31;1304248;22;19995;-82
2021/03/01 00:25:22;;;;;;;10.65;8.65;;;;;;;2.04;79.78;97299.50;1304084;22;19991;-78
2021/03/01 00:25:52;;;;;;;10.57;8.45;;;;;;;2.02;78.34;97296.25;1303757;22;20002;-78
2021/03/01 00:26:23;;;;;;;14.85;8.70;;;;;;;2.02;78.06;97298.88;1303784;22;20502;-78
2021/03/01 00:26:53;;;;;;;12.27;9.70;;;;;;;2.01;79.10;97305.88;1303815;22;19992;-78
2021/03/01 00:27:24;;;;;;;13.82;9.48;;;;;;;1.99;78.82;97296.56;1303827;22;19987;-78
2021/03/01 00:27:54;;;;;;;12.82;9.88;;;;;;;1.98;78.63;97298.34;1304193;22;19996;-78
2021/03/01 00:28:24;;;;;;;11.77;8.88;;;;;;;1.99;78.16;97301.78;1304147;22;19995;-77
2021/03/01 00:28:55;;;;;;;11.70;8.65;;;;;;;1.98;79.07;97300.97;1304112;22;19999;-77
2021/03/01 00:29:25;;;;;;;12.45;8.60;;;;;;;1.97;78.79;97304.56;1304183;22;20094;-77
2021/03/01 00:29:56;;;;;;;13.45;8.80;;;;;;;1.97;79.52;97301.13;1304170;22;19991;-77
2021/03/01 00:30:26;;;;;;;12.40;8.98;;;;;;;1.98;78.67;97303.59;1304201;22;19991;-77
2021/03/01 00:30:57;;;;;;;11.32;8.63;;;;;;;2.01;78.09;97311.13;1304190;22;19995;-79
2021/03/01 00:31:29;;;;;;;11.40;8.77;;;;;;;1.99;79.14;97301.78;1304017;22;19992;-79
2021/03/01 00:31:59;;;;;;;11.40;8.98;;;;;;;2.00;79.62;97301.63;1303954;22;20003;-78
2021/03/01 00:32:30;;;;;;;10.93;8.48;;;;;;;2.01;79.51;97305.03;1303868;22;20424;-79
2021/03/01 00:33:00;;;;;;;11.63;8.50;;;;;;;1.97;79.84;97303.75;1303877;22;20000;-79
2021/03/01 00:33:31;;;;;;;12.35;9.45;;;;;;;1.97;78.65;97303.75;1304157;22;20003;-79
2021/03/01 00:34:01;;;;;;;14.75;10.23;;;;;;;1.96;78.12;97296.91;1304235;22;20101;-79
2021/03/01 00:34:32;;;;;;;13.38;8.88;;;;;;;1.98;77.76;97306.19;1304074;22;19999;-78
2021/03/01 00:35:04;;;;;;;12.75;8.80;;;;;;;2.02;77.50;97298.88;1303105;22;19999;-78
2021/03/01 00:35:34;;;;;;;14.68;10.00;;;;;;;2.04;78.52;97299.50;1304228;22;20014;-79
2021/03/01 00:36:05;;;;;;;13.98;9.73;;;;;;;1.99;78.72;97307.00;1304302;22;20018;-79
2021/03/01 00:36:35;;;;;;;12.20;9.48;;;;;;;2.01;78.72;97305.03;1304344;22;20420;-79
2021/03/01 00:37:05;;;;;;;13.85;9.57;;;;;;;2.01;79.72;97300.66;1304094;22;20030;-79
2021/03/01 00:37:36;;;;;;;13.25;10.23;;;;;;;2.04;78.35;97299.50;1303906;22;20501;-79
2021/03/01 00:38:06;;;;;;;11.43;8.90;;;;;;;2.00;77.59;97300.78;1303986;22;20057;-79
2021/03/01 00:38:37;;;;;;;12.85;9.70;;;;;;;1.99;77.85;97301.78;1310366;22;20019;-80
2021/03/01 00:39:08;;;;;;;13.25;9.88;;;;;;;1.93;78.06;97295.44;1310311;22;20394;-79
2021/03/01 00:39:39;;;;;;;13.75;10.00;;;;;;;1.92;78.13;97290.38;1310054;22;20010;-82
2021/03/01 00:40:10;;;;;;;13.60;9.77;;;;;;;1.92;79.29;97295.59;1304350;22;20379;-80
2021/03/01 00:40:40;;;;;;;14.95;9.70;;;;;;;1.89;79.04;97295.91;1303754;22;20010;-78
2021/03/01 00:41:11;;;;;;;12.23;9.93;;;;;;;1.94;80.22;97304.09;1303801;22;20435;-79
2021/03/01 00:41:41;;;;;;;14.32;9.77;;;;;;;1.93;80.08;97297.22;1303780;22;20003;-79
2021/03/01 00:42:11;;;;;;;13.50;10.13;;;;;;;1.87;79.76;97287.41;1303801;22;19999;-79
2021/03/01 00:42:42;;;;;;;14.23;9.65;;;;;;;1.96;78.73;97296.91;1304114;22;20010;-78
2021/03/01 00:43:12;;;;;;;12.77;8.90;;;;;;;1.92;79.02;97285.16;1304225;22;20014;-79
2021/03/01 00:43:43;;;;;;;13.25;10.05;;;;;;;1.97;78.15;97298.53;1304206;22;20026;-80
2021/03/01 00:44:13;;;;;;;13.48;9.52;;;;;;;1.94;78.41;97294.44;1303842;22;20438;-79
2021/03/01 00:44:43;;;;;;;12.20;9.02;;;;;;;1.93;78.10;97294.63;1303762;22;20006;-79
2021/03/01 00:45:14;;;;;;;12.38;10.20;;;;;;;1.90;78.51;97303.63;1303849;22;20006;-79
2021/03/01 00:45:44;;;;;;;14.75;9.30;;;;;;;1.93;80.40;97294.63;1297501;22;20011;-78
2021/03/01 00:46:15;;;;;;;12.68;9.40;;;;;;;1.96;79.10;97296.91;1304012;22;20478;-77
2021/03/01 00:46:45;;;;;;;13.48;9.48;;;;;;;1.96;78.84;97299.50;1297404;22;20053;-78
2021/03/01 00:47:16;;;;;;;15.35;9.32;;;;;;;1.97;78.17;97298.53;1297439;22;20038;-78
2021/03/01 00:47:46;;;;;;;15.02;9.35;;;;;;;1.96;79.71;97292.47;1303804;22;20053;-78
2021/03/01 00:48:17;;;;;;;13.38;9.25;;;;;;;1.87;78.52;97295.25;1303934;22;20006;-78
2021/03/01 00:48:47;;;;;;;12.60;9.35;;;;;;;1.84;78.13;97295.59;1304109;22;19995;-78
2021/03/01 00:49:17;;;;;;;12.70;9.27;;;;;;;1.84;78.99;97293.00;1304069;22;19995;-77
2021/03/01 00:49:48;;;;;;;13.60;9.82;;;;;;;1.82;78.76;97293.16;1304132;22;19991;-77
2021/03/01 00:50:19;;;;;;;12.43;9.38;;;;;;;1.81;78.82;97293.31;1304179;22;20056;-77
2021/03/01 00:50:49;;;;;;;12.43;9.02;;;;;;;1.85;79.93;97292.81;1304285;22;20053;-76
2021/03/01 00:51:20;;;;;;;14.05;11.07;;;;;;;1.83;80.18;97292.16;1304097;22;20052;-76
2021/03/01 00:51:50;;;;;;;13.43;9.88;;;;;;;1.84;80.35;97293.00;1304224;22;20006;-77
2021/03/01 00:52:21;;;;;;;13.82;9.85;;;;;;;1.81;79.55;97288.09;1303689;22;20011;-76
2021/03/01 00:52:51;;;;;;;15.05;9.55;;;;;;;1.79;80.59;97293.50;1303841;22;20026;-77
2021/03/01 00:53:22;;;;;;;18.33;10.55;;;;;;;1.74;80.14;97293.97;1297290;22;20038;-77
2021/03/01 00:53:52;;;;;;;15.65;11.27;;;;;;;1.73;80.15;97294.94;1297394;22;20065;-78
2021/03/01 00:54:23;;;;;;;13.88;10.27;;;;;;;1.75;80.33;97302.63;1303902;22;20061;-78
2021/03/01 00:54:53;;;;;;;12.50;10.18;;;;;;;1.74;80.65;97299.19;1303665;22;20386;-78
2021/03/01 00:55:24;;;;;;;14.10;10.10;;;;;;;1.70;80.59;97295.28;1304211;22;19995;-78
2021/03/01 00:55:54;;;;;;;14.68;10.60;;;;;;;1.67;80.78;97290.41;1303834;22;20025;-76
2021/03/01 00:56:24;;;;;;;12.30;10.05;;;;;;;1.70;80.94;97297.91;1304140;22;20049;-76
2021/03/01 00:56:55;;;;;;;14.05;9.95;;;;;;;1.76;81.10;97299.03;1304085;22;20054;-76
2021/03/01 00:57:25;;;;;;;15.40;10.18;;;;;;;1.72;80.04;97303.78;1304147;22;20052;-77
2021/03/01 00:57:56;;;;;;;14.55;10.25;;;;;;;1.74;80.58;97293.97;1303980;22;20041;-74
2021/03/01 00:58:26;;;;;;;14.85;10.52;;;;;;;1.79;79.50;97298.72;1303838;22;20002;-76
2021/03/01 00:58:56;;;;;;;13.57;10.05;;;;;;;1.83;78.72;97289.56;1303793;22;19998;-75
2021/03/01 00:59:28;;;;;;;13.65;9.25;;;;;;;1.86;78.62;97294.44;1303900;22;20054;-77
2021/03/01 00:59:59;;;;;;;14.30;9.75;;;;;;;1.81;79.33;97293.31;1297634;22;20003;-76
2021/03/01 01:00:29;;;;;;;12.95;9.95;;;;;;;1.82;79.94;97289.72;1303696;22;19991;-76
2021/03/01 01:01:00;;;;;;;13.10;9.57;;;;;;;1.77;79.93;97292.81;1303696;22;19999;-76
2021/03/01 01:01:30;;;;;;;13.05;9.65;;;;;;;1.74;79.76;97299.19;1303744;22;19991;-76
2021/03/01 01:02:00;;;;;;;13.65;10.40;;;;;;;1.75;79.79;97295.59;1304209;22;19995;-80
2021/03/01 01:02:31;;;;;;;13.77;10.23;;;;;;;1.79;79.73;97295.28;1304175;22;20420;-80
2021/03/01 01:03:01;;;;;;;15.23;10.20;;;;;;;1.75;79.43;97294.78;1304241;22;19991;-80
2021/03/01 01:03:32;;;;;;;15.90;10.57;;;;;;;1.74;79.56;97299.19;1304138;22;19991;-81
2021/03/01 01:04:04;;;;;;;13.68;9.95;;;;;;;1.75;79.54;97292.97;1304260;22;19988;-80
2021/03/01 01:04:34;;;;;;;14.10;10.48;;;;;;;1.75;80.33;97303.44;1304306;22;19991;-80
2021/03/01 01:05:05;;;;;;;14.02;10.35;;;;;;;1.74;79.70;97299.19;1304201;22;19995;-80
2021/03/01 01:05:36;;;;;;;12.77;10.38;;;;;;;1.73;80.21;97297.56;1304148;22;20003;-81
2021/03/01 01:06:06;;;;;;;14.07;10.60;;;;;;;1.75;81.03;97300.81;1303814;22;19987;-80
2021/03/01 01:06:37;;;;;;;14.82;10.40;;;;;;;1.76;79.76;97297.22;1303839;22;19999;-80
2021/03/01 01:07:07;;;;;;;15.02;11.10;;;;;;;1.80;80.98;97299.53;1303893;22;20297;-80
2021/03/01 01:07:38;;;;;;;16.17;10.07;;;;;;;1.80;81.29;97308.19;1303832;22;20422;-79
2021/03/01 01:08:08;;;;;;;14.43;10.65;;;;;;;1.81;80.34;97298.56;1304206;22;19994;-80
2021/03/01 01:08:39;;;;;;;13.15;10.10;;;;;;;1.81;80.12;97296.75;1304242;22;20014;-80
2021/03/01 01:09:09;;;;;;;12.48;9.80;;;;;;;1.79;79.90;97295.28;1303672;22;20454;-79
2021/03/01 01:09:39;;;;;;;16.17;10.57;;;;;;;1.77;79.15;97295.44;1303896;22;20006;-80
2021/03/01 01:10:10;;;;;;;16.35;10.07;;;;;;;1.77;79.55;97295.44;1297426;22;19992;-79
2021/03/01 01:10:41;;;;;;;13.52;10.35;;;;;;;1.80;79.26;97291.69;1297710;22;20071;-80
2021/03/01 01:11:11;;;;;;;12.95;9.63;;;;;;;1.80;79.03;97302.16;1303939;22;20018;-80
2021/03/01 01:11:42;;;;;;;13.98;10.88;;;;;;;1.77;79.24;97298.84;1303808;22;20003;-79
2021/03/01 01:12:12;;;;;;;13.75;9.07;;;;;;;1.79;78.93;97290.88;1304149;22;20432;-80
2021/03/01 01:12:43;;;;;;;14.20;10.18;;;;;;;1.77;79.60;97298.84;1304229;22;20010;-80
2021/03/01 01:13:13;;;;;;;14.13;10.30;;;;;;;1.77;79.08;97301.47;1304169;22;20003;-80
2021/03/01 01:13:43;;;;;;;11.93;9.15;;;;;;;1.77;79.53;97292.81;1304237;22;20006;-80
2021/03/01 01:14:14;;;;;;;12.57;9.23;;;;;;;1.77;80.94;97293.63;1303715;22;20383;-79
2021/03/01 01:14:44;;;;;;;13.10;10.40;;;;;;;1.81;80.18;97298.56;1303733;22;19995;-80
2021/03/01 01:15:15;;;;;;;13.35;10.07;;;;;;;1.84;79.40;97298.22;1303797;22;19999;-79
2021/03/01 01:15:46;;;;;;;14.10;9.88;;;;;;;1.82;80.59;97293.16;1303804;22;19999;-79
2021/03/01 01:16:16;;;;;;;15.63;10.27;;;;;;;1.79;79.31;97290.06;1304155;22;19999;-79
2021/03/01 01:16:46;;;;;;;13.38;8.73;;;;;;;1.84;80.29;97293.81;1304224;22;20487;-79
2021/03/01 01:17:17;;;;;;;13.80;9.68;;;;;;;1.85;79.55;97299.84;1304156;22;20057;-80
2021/03/01 01:17:47;;;;;;;15.13;9.55;;;;;;;1.87;78.63;97297.88;1304212;22;20048;-80
2021/03/01 01:18:18;;;;;;;14.73;10.02;;;;;;;1.76;78.72;97285.97;1304184;22;20002;-79
2021/03/01 01:18:48;;;;;;;15.05;9.25;;;;;;;1.81;79.02;97299.38;1304213;22;19999;-80
2021/03/01 01:19:18;;;;;;;13.77;9.23;;;;;;;1.83;78.71;97300.00;1304187;22;20004;-80
2021/03/01 01:19:49;;;;;;;13.15;9.68;;;;;;;1.82;80.47;97297.56;1304267;22;20062;-80
2021/03/01 01:20:19;;;;;;;12.60;9.50;;;;;;;1.78;80.04;97297.09;1304170;22;20030;-80
2021/03/01 01:20:50;;;;;;;14.05;9.82;;;;;;;1.81;79.19;97296.75;1304155;22;20446;-80
2021/03/01 01:21:20;;;;;;;12.15;9.40;;;;;;;1.76;79.04;97297.22;1304096;22;19996;-80
2021/03/01 01:21:50;;;;;;;12.50;9.68;;;;;;;1.77;80.55;97301.47;1304081;22;19995;-80
2021/03/01 01:22:21;;;;;;;13.68;10.23;;;;;;;1.80;81.10;97300.34;1304270;22;20006;-80
2021/03/01 01:22:51;;;;;;;14.25;10.38;;;;;;;1.75;79.96;97298.22;1304251;22;19995;-79
2021/03/01 01:23:22;;;;;;;13.68;9.70;;;;;;;1.77;79.58;97301.47;1304184;22;20003;-80
2021/03/01 01:23:52;;;;;;;13.25;9.05;;;;;;;1.76;80.07;97296.41;1304145;22;19999;-79
2021/03/01 01:24:22;;;;;;;13.13;10.20;;;;;;;1.76;81.08;97297.22;1304079;22;20007;-79
2021/03/01 01:24:53;;;;;;;13.82;9.65;;;;;;;1.75;80.64;97292.97;1304116;22;19991;-80
2021/03/01 01:25:23;;;;;;;12.93;9.68;;;;;;;1.74;80.71;97296.59;1304238;22;20005;-80
2021/03/01 01:25:54;;;;;;;11.95;9.07;;;;;;;1.69;80.64;97296.28;1304019;22;20057;-80
2021/03/01 01:26:24;;;;;;;13.63;9.48;;;;;;;1.73;79.89;97296.75;1304103;22;20006;-80
2021/03/01 01:26:54;;;;;;;11.90;9.23;;;;;;;1.69;80.91;97293.66;1303523;22;20010;-80
2021/03/01 01:27:25;;;;;;;16.20;9.90;;;;;;;1.72;81.74;97293.31;1304024;22;20027;-79
2021/03/01 01:27:55;;;;;;;14.27;9.85;;;;;;;1.76;80.88;97292.00;1304113;22;20424;-80
2021/03/01 01:28:26;;;;;;;11.43;9.75;;;;;;;1.74;80.27;97299.19;1304054;22;20003;-79
2021/03/01 01:28:56;;;;;;;12.45;8.90;;;;;;;1.77;79.40;97304.09;1304230;22;19999;-75
2021/03/01 01:29:27;;;;;;;16.75;11.20;;;;;;;1.70;79.65;97292.66;1304199;22;19995;-75
2021/03/01 01:29:57;;;;;;;15.73;9.73;;;;;;;1.66;80.89;97312.28;1304137;22;20002;-75
2021/03/01 01:30:27;;;;;;;16.30;10.52;;;;;;;1.61;81.03;97304.09;1304002;22;19999;-75
2021/03/01 01:30:58;;;;;;;13.80;10.65;;;;;;;1.59;80.19;97300.03;1303839;22;19995;-75
2021/03/01 01:31:28;;;;;;;13.40;10.50;;;;;;;1.60;80.81;97306.88;1303835;22;19999;-76
2021/03/01 01:31:59;;;;;;;16.83;11.30;;;;;;;1.57;81.01;97302.00;1303783;22;19999;-75
2021/03/01 01:32:29;;;;;;;20.58;11.25;;;;;;;1.56;80.09;97301.16;1303740;22;20324;-75
2021/03/01 01:33:00;;;;;;;16.20;11.43;;;;;;;1.53;79.49;97301.47;1304085;22;19995;-75
2021/03/01 01:33:30;;;;;;;16.10;11.38;;;;;;;1.51;80.25;97302.63;1304131;22;20006;-75
2021/03/01 01:34:00;;;;;;;16.80;11.57;;;;;;;1.48;82.00;97301.16;1304184;22;20415;-74
2021/03/01 01:34:31;;;;;;;15.48;11.85;;;;;;;1.35;81.37;97298.22;1304131;22;20033;-75
2021/03/01 01:35:03;;;;;;;15.10;11.48;;;;;;;1.33;81.72;97302.78;1303980;22;20297;-75
2021/03/01 01:35:34;;;;;;;17.15;12.00;;;;;;;1.30;82.21;97295.25;1304131;22;20424;-75
2021/03/01 01:36:04;;;;;;;18.08;11.23;;;;;;;1.32;82.68;97298.53;1303993;22;19991;-75
2021/03/01 01:36:35;;;;;;;15.60;11.32;;;;;;;1.25;82.51;97297.53;1304098;22;20078;-75
2021/03/01 01:37:05;;;;;;;18.98;13.02;;;;;;;1.27;81.53;97292.97;1304060;22;20322;-75
2021/03/01 01:37:36;;;;;;;16.73;12.65;;;;;;;1.33;80.95;97300.19;1304118;22;19999;-75
2021/03/01 01:38:06;;;;;;;18.20;12.52;;;;;;;1.27;81.09;97291.19;1304049;22;20053;-75
2021/03/01 01:38:37;;;;;;;19.50;12.05;;;;;;;1.30;80.69;97303.09;1304035;22;20000;-75
2021/03/01 01:39:07;;;;;;;18.48;12.15;;;;;;;1.20;82.65;97300.66;1304016;22;19996;-76
2021/03/01 01:39:37;;;;;;;15.95;11.85;;;;;;;1.10;82.66;97298.19;1304073;22;19999;-75
2021/03/01 01:40:10;;;;;;;17.33;12.10;;;;;;;1.15;82.14;97298.50;1304068;22;20297;-75
2021/03/01 01:40:41;;;;;;;16.15;11.50;;;;;;;1.12;82.79;97293.59;1304092;22;19991;-75
2021/03/01 01:41:11;;;;;;;17.30;12.35;;;;;;;1.11;83.14;97296.38;1304057;22;20007;-75
2021/03/01 01:41:42;;;;;;;16.90;11.80;;;;;;;1.08;82.66;97301.94;1303922;22;20395;-75
2021/03/01 01:42:12;;;;;;;18.13;12.07;;;;;;;1.07;83.00;97290.69;1304060;22;19995;-75
2021/03/01 01:42:43;;;;;;;21.08;12.52;;;;;;;1.05;83.93;97297.81;1303953;22;20015;-75
2021/03/01 01:43:13;;;;;;;15.55;11.70;;;;;;;1.03;83.58;97294.56;1303548;22;19991;-75
2021/03/01 01:43:44;;;;;;;17.08;12.48;;;;;;;1.00;83.35;97287.06;1297291;22;20301;-76
2021/03/01 01:44:14;;;;;;;19.25;13.45;;;;;;;1.01;82.59;97293.09;1297174;22;20379;-75
2021/03/01 01:44:44;;;;;;;17.35;12.13;;;;;;;0.99;83.78;97292.44;1297376;22;20439;-75
2021/03/01 01:45:17;;;;;;;17.40;11.93;;;;;;;0.99;84.11;97297.66;1303598;22;19993;-75
2021/03/01 01:45:47;;;;;;;14.32;11.40;;;;;;;0.95;83.85;97296.34;1303659;22;20006;-75
2021/03/01 01:46:17;;;;;;;17.45;12.43;;;;;;;0.93;84.18;97296.50;1297205;22;19996;-75
2021/03/01 01:46:48;;;;;;;19.85;12.18;;;;;;;0.86;83.78;97292.91;1297293;22;20352;-75
2021/03/01 01:47:18;;;;;;;15.23;11.63;;;;;;;0.85;84.48;97291.28;1297589;22;20123;-75
2021/03/01 01:47:49;;;;;;;18.23;12.48;;;;;;;0.85;84.76;97291.28;1303670;22;19999;-75
2021/03/01 01:48:19;;;;;;;17.08;10.90;;;;;;;0.89;85.30;97292.56;1304115;22;20019;-75
2021/03/01 01:48:50;;;;;;;15.85;12.00;;;;;;;0.87;84.80;97295.34;1304012;22;20412;-75
2021/03/01 01:49:20;;;;;;;18.65;12.45;;;;;;;0.83;84.43;97303.66;1303939;22;19995;-75
2021/03/01 01:49:50;;;;;;;18.02;12.85;;;;;;;0.86;84.92;97298.13;1303977;22;20074;-75
2021/03/01 01:50:22;;;;;;;18.38;12.32;;;;;;;0.78;84.72;97293.69;1304112;22;19995;-76
2021/03/01 01:50:53;;;;;;;19.88;13.30;;;;;;;0.78;84.17;97296.28;1303953;22;19987;-75
2021/03/01 01:51:23;;;;;;;17.77;12.40;;;;;;;0.78;84.56;97292.88;1304170;22;20308;-76
2021/03/01 01:51:53;;;;;;;19.42;13.93;;;;;;;0.76;84.54;97292.22;1304018;22;20000;-76
2021/03/01 01:52:24;;;;;;;18.77;11.57;;;;;;;0.74;84.58;97289.75;1303829;22;20312;-77
2021/03/01 01:52:55;;;;;;;17.38;11.38;;;;;;;0.78;85.37;97296.28;1303682;22;20458;-77
2021/03/01 01:53:25;;;;;;;16.80;12.10;;;;;;;0.73;84.99;97297.75;1303684;22;20002;-77
2021/03/01 01:53:56;;;;;;;17.17;12.73;;;;;;;0.75;85.09;97295.81;1291123;22;20000;-77
2021/03/01 01:54:26;;;;;;;18.77;13.27;;;;;;;0.79;83.96;97297.09;1297334;22;19999;-77
2021/03/01 01:54:57;;;;;;;18.42;12.60;;;;;;;0.75;84.02;97301.84;1297188;22;20404;-77
2021/03/01 01:55:27;;;;;;;17.00;12.68;;;;;;;0.70;83.63;97293.66;1297503;22;20447;-77
2021/03/01 01:55:58;;;;;;;17.75;12.85;;;;;;;0.68;85.31;97297.41;1290823;23;20014;-76
2021/03/01 01:56:28;;;;;;;18.85;13.38;;;;;;;0.66;85.18;97296.75;1290951;23;20062;-77
2021/03/01 01:56:59;;;;;;;18.38;13.15;;;;;;;0.67;84.74;97296.59;1291255;22;20062;-81
2021/03/01 01:57:30;;;;;;;20.55;11.65;;;;;;;0.67;83.89;97298.38;1297779;22;20065;-80
2021/03/01 01:58:01;;;;;;;18.40;13.05;;;;;;;0.65;84.08;97301.16;1304718;22;19995;-81
2021/03/01 01:58:32;;;;;;;18.00;13.20;;;;;;;0.64;85.71;97299.50;1303844;22;19996;-80
2021/03/01 01:59:02;;;;;;;22.63;13.20;;;;;;;0.67;84.70;97299.19;1297238;22;19999;-80
2021/03/01 01:59:33;;;;;;;19.38;13.57;;;;;;;0.67;84.20;97293.16;1297494;22;20003;-81
2021/03/01 02:00:11;;;;;;;23.25;13.50;;;;;;;0.63;84.41;97297.06;1297441;22;20385;-80
2021/03/01 02:00:45;;;;;;;19.45;13.68;;;;;;;0.62;84.75;97295.44;1292807;22;20364;-81
2021/03/01 02:01:15;;;;;;;17.73;13.20;;;;;;;0.62;83.76;97295.44;1291093;23;20402;-81
2021/03/01 02:01:46;;;;;;;20.10;13.15;;;;;;;0.58;85.87;97300.94;1290885;23;20046;-81
2021/03/01 02:02:16;;;;;;;20.27;14.05;;;;;;;0.58;86.61;97287.09;1293073;22;20027;-80
2021/03/01 02:02:49;;;;;;;18.63;13.55;;;;;;;0.56;86.74;97297.69;1303912;22;20072;-81
2021/03/01 02:03:35;;;;;;;17.83;12.35;;;;;;;0.57;84.90;97293.28;1303902;22;20378;-81
2021/03/01 02:04:09;;;;;;;18.48;12.52;;;;;;;0.53;85.95;97292.78;1297360;22;20491;-81
2021/03/01 02:04:42;;;;;;;19.95;13.30;;;;;;;0.54;85.60;97285.78;1284838;23;20003;-81
2021/03/01 02:05:12;;;;;;;20.75;14.55;;;;;;;0.50;85.24;97293.09;1276756;23;19999;-81
2021/03/01 02:05:42;;;;;;;23.60;13.50;;;;;;;0.52;85.42;97288.53;1273625;23;20368;-81
2021/03/01 02:06:37;;;;;;;19.23;13.27;;;;;;;0.53;84.34;97286.75;1273761;23;19993;-81
2021/03/01 02:07:13;;;;;;;22.50;12.95;;;;;;;0.55;86.44;97288.22;1296442;22;19991;-82
2021/03/01 02:07:56;;;;;;;21.98;13.27;;;;;;;0.55;86.23;97285.59;1303788;22;19999;-82
2021/03/01 02:08:28;;;;;;;21.83;13.82;;;;;;;0.54;85.03;97288.38;1303701;22;20305;-82
2021/03/01 02:09:19;;;;;;;21.52;14.10;;;;;;;0.51;85.76;97289.50;1291106;23;20053;-82
2021/03/01 02:10:18;;;;;;;21.95;14.02;;;;;;;0.52;86.51;97283.31;1284719;23;20436;-82
2021/03/01 02:10:51;;;;;;;23.65;13.45;;;;;;;0.47;85.45;97282.97;1288887;23;20059;-82
2021/03/01 02:11:35;;;;;;;20.15;13.55;;;;;;;0.52;86.30;97279.91;1284932;23;19997;-82
2021/03/01 02:12:14;;;;;;;19.25;13.43;;;;;;;0.48;85.93;97287.22;1279505;23;20067;-82
2021/03/01 02:12:48;;;;;;;20.48;13.10;;;;;;;0.47;86.00;97288.19;1284972;23;20013;-82
2021/03/01 02:13:35;;;;;;;21.52;13.23;;;;;;;0.50;86.53;97282.66;1290289;23;20309;-82
2021/03/01 02:14:11;;;;;;;18.88;12.98;;;;;;;0.47;85.60;97290.78;1303659;22;20023;-83
2021/03/01 02:14:53;;;;;;;19.85;13.27;;;;;;;0.50;85.43;97280.06;1302934;22;19995;-82
2021/03/01 02:15:52;;;;;;;18.73;13.50;;;;;;;0.47;86.54;97287.34;1303571;22;19999;-83
2021/03/01 02:16:31;;;;;;;21.63;13.05;;;;;;;0.43;86.15;97286.88;1299486;22;20421;-80
2021/03/01 02:17:01;;;;;;;22.63;13.98;;;;;;;0.37;86.33;97277.06;1290954;23;20012;-80
2021/03/01 02:17:32;;;;;;;20.67;13.35;;;;;;;0.40;86.34;97284.56;1290975;23;19996;-80
2021/03/01 02:18:02;;;;;;;22.10;13.45;;;;;;;0.43;85.72;97286.88;1286310;23;20080;-80
2021/03/01 02:18:33;;;;;;;21.08;13.70;;;;;;;0.40;86.10;97283.75;1291185;22;20000;-80
2021/03/01 02:19:04;;;;;;;20.17;12.35;;;;;;;0.47;86.95;97285.56;1303721;22;20462;-80
2021/03/01 02:19:35;;;;;;;18.30;12.85;;;;;;;0.45;86.65;97276.28;1303660;22;20054;-80
2021/03/01 02:20:08;;;;;;;18.00;13.18;;;;;;;0.41;86.09;97278.38;1303729;22;20385;-78
2021/03/01 02:20:45;;;;;;;18.35;13.07;;;;;;;0.42;85.97;97280.03;1303467;22;19995;-78
2021/03/01 02:21:16;;;;;;;18.27;12.80;;;;;;;0.43;85.36;97284.25;1297266;22;20443;-79
2021/03/01 02:21:46;;;;;;;21.52;13.27;;;;;;;0.48;84.72;97287.22;1293032;22;20000;-78
2021/03/01 02:22:16;;;;;;;20.27;13.35;;;;;;;0.40;85.37;97284.56;1297294;22;20003;-78
2021/03/01 02:22:47;;;;;;;21.23;13.75;;;;;;;0.38;85.88;97281.31;1290884;22;20012;-79
2021/03/01 02:23:17;;;;;;;20.98;14.43;;;;;;;0.41;86.45;97278.38;1290967;22;20004;-79
2021/03/01 02:23:48;;;;;;;21.17;14.00;;;;;;;0.39;85.34;97276.91;1297313;22;20003;-79
2021/03/01 02:24:38;;;;;;;18.67;13.55;;;;;;;0.41;86.49;97277.56;1296782;22;20008;-80
2021/03/01 02:25:10;;;;;;;21.17;14.27;;;;;;;0.39;85.52;97279.53;1295467;22;19999;-78
2021/03/01 02:26:02;;;;;;;19.95;13.25;;;;;;;0.34;85.60;97272.16;1291131;23;19996;-82
2021/03/01 02:26:32;;;;;;;23.30;12.73;;;;;;;0.33;86.37;97275.72;1290339;23;20012;-81
2021/03/01 02:27:03;;;;;;;22.08;13.48;;;;;;;0.28;86.34;97278.00;1295918;22;20027;-80
2021/03/01 02:27:52;;;;;;;19.00;13.02;;;;;;;0.38;86.95;97286.53;1302002;22;20036;-80